-13.9C
переменная облачность
переменная облачность
Дата и времяТемператураДавление, мм рт.ст.Влажность, %Осадки
МинимумМаксимум
07.12.2022 08:00-17.68C-15.16C77489облачно с прояснениями
07.12.2022 11:00-16.28C-15.49C77391облачно с прояснениями
07.12.2022 14:00-16C-16C77293облачно с прояснениями
07.12.2022 17:00-15.28C-15.28C77193пасмурно
07.12.2022 20:00-15.37C-15.37C77093пасмурно
07.12.2022 23:00-16.39C-16.39C76894пасмурно
08.12.2022 02:00-16.11C-16.11C76791пасмурно
08.12.2022 05:00-15.31C-15.31C76688пасмурно
08.12.2022 08:00-15.64C-15.64C76589пасмурно
08.12.2022 11:00-13.89C-13.89C76595небольшой снег
08.12.2022 14:00-12.84C-12.84C76494небольшой снег
08.12.2022 17:00-12.93C-12.93C76494пасмурно
08.12.2022 20:00-13.2C-13.2C76494небольшой снег
08.12.2022 23:00-13.87C-13.87C76496пасмурно
09.12.2022 02:00-13.06C-13.06C76395пасмурно
09.12.2022 05:00-12.93C-12.93C76395пасмурно
09.12.2022 08:00-12.03C-12.03C76394небольшой снег
09.12.2022 11:00-11.71C-11.71C76494небольшой снег
09.12.2022 14:00-17.43C-17.43C76593небольшой снег
09.12.2022 17:00-24.03C-24.03C76891пасмурно
09.12.2022 20:00-31.01C-31.01C76895облачно с прояснениями
09.12.2022 23:00-33.46C-33.46C76996переменная облачность
10.12.2022 02:00-32.96C-32.96C76997небольшая облачность
10.12.2022 05:00-30.78C-30.78C76997небольшая облачность
10.12.2022 08:00-27.77C-27.77C77096облачно с прояснениями
10.12.2022 11:00-25.78C-25.78C77196облачно с прояснениями
10.12.2022 14:00-23C-23C77294пасмурно
10.12.2022 17:00-23.54C-23.54C77392пасмурно
10.12.2022 20:00-24.18C-24.18C77496облачно с прояснениями
10.12.2022 23:00-26.51C-26.51C77598облачно с прояснениями
11.12.2022 02:00-27.15C-27.15C77799небольшая облачность
11.12.2022 05:00-28.59C-28.59C77899небольшая облачность
11.12.2022 08:00-30.48C-30.48C779100переменная облачность
11.12.2022 11:00-28.7C-28.7C78099переменная облачность
11.12.2022 14:00-28.36C-28.36C78199небольшая облачность
11.12.2022 17:00-30.95C-30.95C781100переменная облачность
11.12.2022 20:00-26.89C-26.89C77999пасмурно
11.12.2022 23:00-22.66C-22.66C77695пасмурно
12.12.2022 02:00-17.32C-17.32C77195небольшой снег
12.12.2022 05:00-13.53C-13.53C76790небольшой снег
Дата и время наблюдения: 07.12.2022 06:00:38